sensor_id;sensor_type;location;lat;lon;timestamp;temperature;humidity
7800;DHT22;3944;47.984;7.960;2022-07-09T00:00:54;13.90;96.70
7800;DHT22;3944;47.984;7.960;2022-07-09T00:03:23;13.90;96.30
7800;DHT22;3944;47.984;7.960;2022-07-09T00:05:49;13.90;96.30
7800;DHT22;3944;47.984;7.960;2022-07-09T00:08:16;13.90;96.30
7800;DHT22;3944;47.984;7.960;2022-07-09T00:10:43;13.70;96.40
7800;DHT22;3944;47.984;7.960;2022-07-09T00:13:11;13.80;96.80
7800;DHT22;3944;47.984;7.960;2022-07-09T00:15:39;13.80;97.00
7800;DHT22;3944;47.984;7.960;2022-07-09T00:18:06;13.70;97.20
7800;DHT22;3944;47.984;7.960;2022-07-09T00:20:33;13.70;97.00
7800;DHT22;3944;47.984;7.960;2022-07-09T00:23:00;13.70;96.80
7800;DHT22;3944;47.984;7.960;2022-07-09T00:25:26;13.70;97.10
7800;DHT22;3944;47.984;7.960;2022-07-09T00:27:53;13.70;97.10
7800;DHT22;3944;47.984;7.960;2022-07-09T00:30:20;13.70;97.30
7800;DHT22;3944;47.984;7.960;2022-07-09T00:32:48;13.70;97.10
7800;DHT22;3944;47.984;7.960;2022-07-09T00:35:15;13.60;97.40
7800;DHT22;3944;47.984;7.960;2022-07-09T00:37:42;13.50;97.70
7800;DHT22;3944;47.984;7.960;2022-07-09T00:40:10;13.40;97.80
7800;DHT22;3944;47.984;7.960;2022-07-09T00:42:37;13.50;97.70
7800;DHT22;3944;47.984;7.960;2022-07-09T00:45:05;13.40;97.80
7800;DHT22;3944;47.984;7.960;2022-07-09T00:47:31;13.40;97.60
7800;DHT22;3944;47.984;7.960;2022-07-09T00:50:00;13.40;97.20
7800;DHT22;3944;47.984;7.960;2022-07-09T00:52:29;13.50;97.30
7800;DHT22;3944;47.984;7.960;2022-07-09T00:54:56;13.50;97.30
7800;DHT22;3944;47.984;7.960;2022-07-09T00:57:26;13.40;96.80
7800;DHT22;3944;47.984;7.960;2022-07-09T00:59:54;13.40;97.10
7800;DHT22;3944;47.984;7.960;2022-07-09T01:02:22;13.30;97.20
7800;DHT22;3944;47.984;7.960;2022-07-09T01:04:49;13.20;97.30
7800;DHT22;3944;47.984;7.960;2022-07-09T01:07:17;13.20;97.50
7800;DHT22;3944;47.984;7.960;2022-07-09T01:09:44;13.10;97.80
7800;DHT22;3944;47.984;7.960;2022-07-09T01:12:11;13.10;98.00
7800;DHT22;3944;47.984;7.960;2022-07-09T01:14:38;13.00;98.30
7800;DHT22;3944;47.984;7.960;2022-07-09T01:17:06;13.10;98.70
7800;DHT22;3944;47.984;7.960;2022-07-09T01:19:34;13.00;98.80
7800;DHT22;3944;47.984;7.960;2022-07-09T01:22:03;13.00;98.50
7800;DHT22;3944;47.984;7.960;2022-07-09T01:24:30;13.10;98.00
7800;DHT22;3944;47.984;7.960;2022-07-09T01:26:56;13.10;97.90
7800;DHT22;3944;47.984;7.960;2022-07-09T01:29:23;13.10;97.70
7800;DHT22;3944;47.984;7.960;2022-07-09T01:31:50;13.20;97.40
7800;DHT22;3944;47.984;7.960;2022-07-09T01:34:17;13.30;97.30
7800;DHT22;3944;47.984;7.960;2022-07-09T01:36:44;13.30;97.10
7800;DHT22;3944;47.984;7.960;2022-07-09T01:39:12;13.30;97.20
7800;DHT22;3944;47.984;7.960;2022-07-09T01:41:39;13.20;97.70
7800;DHT22;3944;47.984;7.960;2022-07-09T01:44:06;13.20;97.50
7800;DHT22;3944;47.984;7.960;2022-07-09T01:46:33;13.10;97.50
7800;DHT22;3944;47.984;7.960;2022-07-09T01:49:00;13.10;97.60
7800;DHT22;3944;47.984;7.960;2022-07-09T01:51:27;13.10;97.70
7800;DHT22;3944;47.984;7.960;2022-07-09T01:53:54;13.00;97.80
7800;DHT22;3944;47.984;7.960;2022-07-09T01:56:23;13.00;98.00
7800;DHT22;3944;47.984;7.960;2022-07-09T01:58:50;12.90;98.40
7800;DHT22;3944;47.984;7.960;2022-07-09T02:01:16;12.90;98.40
7800;DHT22;3944;47.984;7.960;2022-07-09T02:03:43;12.80;98.30
7800;DHT22;3944;47.984;7.960;2022-07-09T02:06:10;12.70;98.00
7800;DHT22;3944;47.984;7.960;2022-07-09T02:08:37;12.60;98.20
7800;DHT22;3944;47.984;7.960;2022-07-09T02:11:05;12.60;98.30
7800;DHT22;3944;47.984;7.960;2022-07-09T02:13:33;12.70;98.10
7800;DHT22;3944;47.984;7.960;2022-07-09T02:16:00;12.70;98.00
7800;DHT22;3944;47.984;7.960;2022-07-09T02:18:27;12.70;97.90
7800;DHT22;3944;47.984;7.960;2022-07-09T02:20:54;12.80;97.80
7800;DHT22;3944;47.984;7.960;2022-07-09T02:23:22;12.80;98.00
7800;DHT22;3944;47.984;7.960;2022-07-09T02:25:49;12.80;98.30
7800;DHT22;3944;47.984;7.960;2022-07-09T02:28:16;12.80;98.30
7800;DHT22;3944;47.984;7.960;2022-07-09T02:30:44;12.80;98.30
7800;DHT22;3944;47.984;7.960;2022-07-09T02:33:11;12.90;98.00
7800;DHT22;3944;47.984;7.960;2022-07-09T02:35:37;12.80;98.20
7800;DHT22;3944;47.984;7.960;2022-07-09T02:38:04;12.70;97.70
7800;DHT22;3944;47.984;7.960;2022-07-09T02:40:31;12.60;97.90
7800;DHT22;3944;47.984;7.960;2022-07-09T02:42:58;12.60;97.80
7800;DHT22;3944;47.984;7.960;2022-07-09T02:45:25;12.60;97.80
7800;DHT22;3944;47.984;7.960;2022-07-09T02:47:53;12.70;97.80
7800;DHT22;3944;47.984;7.960;2022-07-09T02:50:20;12.70;98.10
7800;DHT22;3944;47.984;7.960;2022-07-09T02:52:47;12.70;98.20
7800;DHT22;3944;47.984;7.960;2022-07-09T02:55:14;12.50;98.70
7800;DHT22;3944;47.984;7.960;2022-07-09T02:57:40;12.40;99.10
7800;DHT22;3944;47.984;7.960;2022-07-09T03:00:08;12.30;99.20
7800;DHT22;3944;47.984;7.960;2022-07-09T03:02:35;12.40;99.40
7800;DHT22;3944;47.984;7.960;2022-07-09T03:05:04;12.50;99.60
7800;DHT22;3944;47.984;7.960;2022-07-09T03:07:31;12.50;99.40
7800;DHT22;3944;47.984;7.960;2022-07-09T03:09:58;12.50;99.70
7800;DHT22;3944;47.984;7.960;2022-07-09T03:12:24;12.40;99.60
7800;DHT22;3944;47.984;7.960;2022-07-09T03:14:51;12.20;99.90
7800;DHT22;3944;47.984;7.960;2022-07-09T03:17:18;12.10;99.90
7800;DHT22;3944;47.984;7.960;2022-07-09T03:19:46;12.20;99.90
7800;DHT22;3944;47.984;7.960;2022-07-09T03:22:14;12.20;99.90
7800;DHT22;3944;47.984;7.960;2022-07-09T03:24:41;12.10;99.90
7800;DHT22;3944;47.984;7.960;2022-07-09T03:27:07;11.90;99.90
7800;DHT22;3944;47.984;7.960;2022-07-09T03:29:35;11.60;99.90
7800;DHT22;3944;47.984;7.960;2022-07-09T03:32:02;11.90;99.90
7800;DHT22;3944;47.984;7.960;2022-07-09T03:34:29;11.80;99.90
7800;DHT22;3944;47.984;7.960;2022-07-09T03:36:56;11.70;99.90
7800;DHT22;3944;47.984;7.960;2022-07-09T03:39:24;11.60;99.90
7800;DHT22;3944;47.984;7.960;2022-07-09T03:41:51;11.50;99.90
7800;DHT22;3944;47.984;7.960;2022-07-09T03:44:18;11.70;99.90
7800;DHT22;3944;47.984;7.960;2022-07-09T03:46:45;11.80;99.90
7800;DHT22;3944;47.984;7.960;2022-07-09T03:49:11;11.40;99.90
7800;DHT22;3944;47.984;7.960;2022-07-09T03:51:38;11.40;99.90
7800;DHT22;3944;47.984;7.960;2022-07-09T03:54:05;11.40;99.90
7800;DHT22;3944;47.984;7.960;2022-07-09T03:56:33;11.20;99.90
7800;DHT22;3944;47.984;7.960;2022-07-09T03:59:00;11.20;99.90
7800;DHT22;3944;47.984;7.960;2022-07-09T04:01:27;11.30;99.90
7800;DHT22;3944;47.984;7.960;2022-07-09T04:03:54;11.30;99.90
7800;DHT22;3944;47.984;7.960;2022-07-09T04:06:21;11.40;99.90
7800;DHT22;3944;47.984;7.960;2022-07-09T04:08:48;11.20;99.90
7800;DHT22;3944;47.984;7.960;2022-07-09T04:11:15;11.30;99.90
7800;DHT22;3944;47.984;7.960;2022-07-09T04:13:44;11.40;99.90
7800;DHT22;3944;47.984;7.960;2022-07-09T04:16:11;11.30;99.90
7800;DHT22;3944;47.984;7.960;2022-07-09T04:18:38;11.20;99.90
7800;DHT22;3944;47.984;7.960;2022-07-09T04:21:08;11.20;99.90
7800;DHT22;3944;47.984;7.960;2022-07-09T04:23:35;11.10;99.90
7800;DHT22;3944;47.984;7.960;2022-07-09T04:26:02;11.30;99.90
7800;DHT22;3944;47.984;7.960;2022-07-09T04:28:29;11.10;99.90
7800;DHT22;3944;47.984;7.960;2022-07-09T04:30:57;11.40;99.90
7800;DHT22;3944;47.984;7.960;2022-07-09T04:33:24;11.50;99.90
7800;DHT22;3944;47.984;7.960;2022-07-09T04:35:52;11.20;99.90
7800;DHT22;3944;47.984;7.960;2022-07-09T04:38:19;11.20;99.90
7800;DHT22;3944;47.984;7.960;2022-07-09T04:40:45;11.40;99.90
7800;DHT22;3944;47.984;7.960;2022-07-09T04:43:13;11.50;99.90
7800;DHT22;3944;47.984;7.960;2022-07-09T04:45:39;11.40;99.90
7800;DHT22;3944;47.984;7.960;2022-07-09T04:48:08;11.40;99.90
7800;DHT22;3944;47.984;7.960;2022-07-09T04:50:34;11.20;99.90
7800;DHT22;3944;47.984;7.960;2022-07-09T04:53:01;11.40;99.90
7800;DHT22;3944;47.984;7.960;2022-07-09T04:55:28;11.60;99.90
7800;DHT22;3944;47.984;7.960;2022-07-09T04:57:56;11.60;99.90
7800;DHT22;3944;47.984;7.960;2022-07-09T05:00:23;11.80;99.90
7800;DHT22;3944;47.984;7.960;2022-07-09T05:02:50;11.70;99.90
7800;DHT22;3944;47.984;7.960;2022-07-09T05:05:18;11.70;99.90
7800;DHT22;3944;47.984;7.960;2022-07-09T05:07:47;11.80;99.90
7800;DHT22;3944;47.984;7.960;2022-07-09T05:10:14;12.10;99.90
7800;DHT22;3944;47.984;7.960;2022-07-09T05:12:41;12.40;99.90
7800;DHT22;3944;47.984;7.960;2022-07-09T05:15:09;12.60;99.90
7800;DHT22;3944;47.984;7.960;2022-07-09T05:17:37;12.70;99.90
7800;DHT22;3944;47.984;7.960;2022-07-09T05:20:05;12.90;99.90
7800;DHT22;3944;47.984;7.960;2022-07-09T05:22:35;13.10;99.90
7800;DHT22;3944;47.984;7.960;2022-07-09T05:25:03;13.30;99.90
7800;DHT22;3944;47.984;7.960;2022-07-09T05:27:30;13.60;99.90
7800;DHT22;3944;47.984;7.960;2022-07-09T05:29:57;13.60;99.90
7800;DHT22;3944;47.984;7.960;2022-07-09T05:32:24;13.60;99.90
7800;DHT22;3944;47.984;7.960;2022-07-09T05:34:51;13.80;99.90
7800;DHT22;3944;47.984;7.960;2022-07-09T05:37:18;14.00;99.90
7800;DHT22;3944;47.984;7.960;2022-07-09T05:39:46;13.90;99.90
7800;DHT22;3944;47.984;7.960;2022-07-09T05:42:13;14.40;99.90
7800;DHT22;3944;47.984;7.960;2022-07-09T05:44:40;14.70;99.90
7800;DHT22;3944;47.984;7.960;2022-07-09T05:47:07;14.90;99.90
7800;DHT22;3944;47.984;7.960;2022-07-09T05:49:34;15.10;99.90
7800;DHT22;3944;47.984;7.960;2022-07-09T05:52:00;15.30;99.90
7800;DHT22;3944;47.984;7.960;2022-07-09T05:54:27;15.30;99.90
7800;DHT22;3944;47.984;7.960;2022-07-09T05:56:56;15.40;99.90
7800;DHT22;3944;47.984;7.960;2022-07-09T05:59:23;15.70;99.90
7800;DHT22;3944;47.984;7.960;2022-07-09T06:01:50;15.80;99.90
7800;DHT22;3944;47.984;7.960;2022-07-09T06:04:17;16.00;99.90
7800;DHT22;3944;47.984;7.960;2022-07-09T06:06:43;16.10;99.90
7800;DHT22;3944;47.984;7.960;2022-07-09T06:09:10;16.10;99.90
7800;DHT22;3944;47.984;7.960;2022-07-09T06:11:37;16.30;99.90
7800;DHT22;3944;47.984;7.960;2022-07-09T06:14:05;16.50;99.90
7800;DHT22;3944;47.984;7.960;2022-07-09T06:16:32;16.50;99.90
7800;DHT22;3944;47.984;7.960;2022-07-09T06:18:59;16.70;99.90
7800;DHT22;3944;47.984;7.960;2022-07-09T06:21:26;16.80;99.90
7800;DHT22;3944;47.984;7.960;2022-07-09T06:23:53;16.90;99.90
7800;DHT22;3944;47.984;7.960;2022-07-09T06:26:20;16.90;99.90
7800;DHT22;3944;47.984;7.960;2022-07-09T06:28:46;17.10;99.90
7800;DHT22;3944;47.984;7.960;2022-07-09T06:31:15;17.30;99.70
7800;DHT22;3944;47.984;7.960;2022-07-09T06:33:42;17.50;99.10
7800;DHT22;3944;47.984;7.960;2022-07-09T06:36:09;17.70;99.10
7800;DHT22;3944;47.984;7.960;2022-07-09T06:38:37;17.90;96.00
7800;DHT22;3944;47.984;7.960;2022-07-09T06:41:18;18.20;96.80
7800;DHT22;3944;47.984;7.960;2022-07-09T06:43:45;18.50;96.30
7800;DHT22;3944;47.984;7.960;2022-07-09T06:46:12;18.90;96.40
7800;DHT22;3944;47.984;7.960;2022-07-09T06:48:40;19.00;95.30
7800;DHT22;3944;47.984;7.960;2022-07-09T06:51:07;19.40;93.80
7800;DHT22;3944;47.984;7.960;2022-07-09T06:53:34;19.80;92.30
7800;DHT22;3944;47.984;7.960;2022-07-09T06:56:01;20.10;93.00
7800;DHT22;3944;47.984;7.960;2022-07-09T06:58:28;20.80;92.70
7800;DHT22;3944;47.984;7.960;2022-07-09T07:00:54;21.10;91.50
7800;DHT22;3944;47.984;7.960;2022-07-09T07:03:21;21.30;90.50
7800;DHT22;3944;47.984;7.960;2022-07-09T07:05:49;21.60;89.30
7800;DHT22;3944;47.984;7.960;2022-07-09T07:08:16;22.20;89.40
7800;DHT22;3944;47.984;7.960;2022-07-09T07:10:43;22.50;89.80
7800;DHT22;3944;47.984;7.960;2022-07-09T07:13:10;22.40;86.00
7800;DHT22;3944;47.984;7.960;2022-07-09T07:15:37;22.80;83.00
7800;DHT22;3944;47.984;7.960;2022-07-09T07:18:04;22.80;81.30
7800;DHT22;3944;47.984;7.960;2022-07-09T07:20:31;22.70;81.30
7800;DHT22;3944;47.984;7.960;2022-07-09T07:22:59;22.70;80.80
7800;DHT22;3944;47.984;7.960;2022-07-09T07:25:26;22.50;80.40
7800;DHT22;3944;47.984;7.960;2022-07-09T07:27:53;22.20;83.60
7800;DHT22;3944;47.984;7.960;2022-07-09T07:30:20;22.10;81.40
7800;DHT22;3944;47.984;7.960;2022-07-09T07:32:46;21.90;82.90
7800;DHT22;3944;47.984;7.960;2022-07-09T07:35:13;21.60;83.00
7800;DHT22;3944;47.984;7.960;2022-07-09T07:37:40;21.40;82.20
7800;DHT22;3944;47.984;7.960;2022-07-09T07:40:10;21.40;83.50
7800;DHT22;3944;47.984;7.960;2022-07-09T07:42:37;21.10;84.50
7800;DHT22;3944;47.984;7.960;2022-07-09T07:45:04;20.90;80.00
7800;DHT22;3944;47.984;7.960;2022-07-09T07:47:31;20.80;79.40
7800;DHT22;3944;47.984;7.960;2022-07-09T07:49:58;20.80;84.10
7800;DHT22;3944;47.984;7.960;2022-07-09T07:52:25;20.80;84.80
7800;DHT22;3944;47.984;7.960;2022-07-09T07:54:52;20.80;85.60
7800;DHT22;3944;47.984;7.960;2022-07-09T07:57:20;20.70;85.40
7800;DHT22;3944;47.984;7.960;2022-07-09T07:59:47;20.70;88.00
7800;DHT22;3944;47.984;7.960;2022-07-09T08:02:14;20.70;86.50
7800;DHT22;3944;47.984;7.960;2022-07-09T08:04:41;20.60;85.20
7800;DHT22;3944;47.984;7.960;2022-07-09T08:07:08;20.40;85.80
7800;DHT22;3944;47.984;7.960;2022-07-09T08:09:34;20.30;85.90
7800;DHT22;3944;47.984;7.960;2022-07-09T08:12:02;20.30;85.20
7800;DHT22;3944;47.984;7.960;2022-07-09T08:14:30;20.40;84.10
7800;DHT22;3944;47.984;7.960;2022-07-09T08:16:57;20.30;85.90
7800;DHT22;3944;47.984;7.960;2022-07-09T08:19:23;20.30;87.00
7800;DHT22;3944;47.984;7.960;2022-07-09T08:21:50;20.30;85.30
7800;DHT22;3944;47.984;7.960;2022-07-09T08:24:17;20.40;86.80
7800;DHT22;3944;47.984;7.960;2022-07-09T08:26:44;20.40;83.60
7800;DHT22;3944;47.984;7.960;2022-07-09T08:29:11;20.40;83.90
7800;DHT22;3944;47.984;7.960;2022-07-09T08:31:39;20.40;86.00
7800;DHT22;3944;47.984;7.960;2022-07-09T08:34:06;20.50;85.70
7800;DHT22;3944;47.984;7.960;2022-07-09T08:36:33;20.50;82.30
7800;DHT22;3944;47.984;7.960;2022-07-09T08:38:59;20.50;82.70
7800;DHT22;3944;47.984;7.960;2022-07-09T08:41:26;20.50;82.00
7800;DHT22;3944;47.984;7.960;2022-07-09T08:43:53;20.40;83.30
7800;DHT22;3944;47.984;7.960;2022-07-09T08:46:20;20.50;83.60
7800;DHT22;3944;47.984;7.960;2022-07-09T08:48:49;20.60;82.90
7800;DHT22;3944;47.984;7.960;2022-07-09T08:51:17;20.60;83.00
7800;DHT22;3944;47.984;7.960;2022-07-09T08:53:45;20.50;82.30
7800;DHT22;3944;47.984;7.960;2022-07-09T08:56:12;20.40;82.60
7800;DHT22;3944;47.984;7.960;2022-07-09T08:58:39;20.50;85.10
7800;DHT22;3944;47.984;7.960;2022-07-09T09:01:06;20.50;83.90
7800;DHT22;3944;47.984;7.960;2022-07-09T09:03:33;20.60;82.70
7800;DHT22;3944;47.984;7.960;2022-07-09T09:06:04;20.70;79.90
7800;DHT22;3944;47.984;7.960;2022-07-09T09:08:35;20.60;80.80
7800;DHT22;3944;47.984;7.960;2022-07-09T09:11:03;20.60;81.50
7800;DHT22;3944;47.984;7.960;2022-07-09T09:13:30;20.60;81.70
7800;DHT22;3944;47.984;7.960;2022-07-09T09:16:08;20.70;84.40
7800;DHT22;3944;47.984;7.960;2022-07-09T09:18:35;20.90;81.00
7800;DHT22;3944;47.984;7.960;2022-07-09T09:21:05;20.70;79.00
7800;DHT22;3944;47.984;7.960;2022-07-09T09:23:43;20.70;80.60
7800;DHT22;3944;47.984;7.960;2022-07-09T09:26:11;20.60;81.60
7800;DHT22;3944;47.984;7.960;2022-07-09T09:28:52;20.60;78.80
7800;DHT22;3944;47.984;7.960;2022-07-09T09:31:20;20.70;79.80
7800;DHT22;3944;47.984;7.960;2022-07-09T09:33:47;20.80;83.80
7800;DHT22;3944;47.984;7.960;2022-07-09T09:36:28;20.80;81.80
7800;DHT22;3944;47.984;7.960;2022-07-09T09:39:10;20.90;82.90
7800;DHT22;3944;47.984;7.960;2022-07-09T09:41:37;20.90;80.40
7800;DHT22;3944;47.984;7.960;2022-07-09T09:44:06;21.00;80.00
7800;DHT22;3944;47.984;7.960;2022-07-09T09:46:35;20.90;80.30
7800;DHT22;3944;47.984;7.960;2022-07-09T09:49:03;21.10;80.80
7800;DHT22;3944;47.984;7.960;2022-07-09T09:51:36;21.10;81.40
7800;DHT22;3944;47.984;7.960;2022-07-09T09:54:03;21.20;82.00
7800;DHT22;3944;47.984;7.960;2022-07-09T09:56:30;21.40;82.10
7800;DHT22;3944;47.984;7.960;2022-07-09T09:58:59;21.40;82.00
7800;DHT22;3944;47.984;7.960;2022-07-09T10:01:27;21.40;82.40
7800;DHT22;3944;47.984;7.960;2022-07-09T10:03:55;21.50;80.50
7800;DHT22;3944;47.984;7.960;2022-07-09T10:06:22;21.50;81.00
7800;DHT22;3944;47.984;7.960;2022-07-09T10:08:52;21.50;82.30
7800;DHT22;3944;47.984;7.960;2022-07-09T10:11:19;21.50;80.40
7800;DHT22;3944;47.984;7.960;2022-07-09T10:13:50;21.50;82.60
7800;DHT22;3944;47.984;7.960;2022-07-09T10:16:17;21.50;81.70
7800;DHT22;3944;47.984;7.960;2022-07-09T10:18:51;21.50;80.90
7800;DHT22;3944;47.984;7.960;2022-07-09T10:21:18;21.70;79.40
7800;DHT22;3944;47.984;7.960;2022-07-09T10:23:52;21.70;77.10
7800;DHT22;3944;47.984;7.960;2022-07-09T10:26:19;21.70;79.50
7800;DHT22;3944;47.984;7.960;2022-07-09T10:28:46;21.60;80.80
7800;DHT22;3944;47.984;7.960;2022-07-09T10:31:19;21.70;80.80
7800;DHT22;3944;47.984;7.960;2022-07-09T10:33:50;21.90;79.60
7800;DHT22;3944;47.984;7.960;2022-07-09T10:36:22;21.80;79.30
7800;DHT22;3944;47.984;7.960;2022-07-09T10:38:54;21.70;78.90
7800;DHT22;3944;47.984;7.960;2022-07-09T10:41:22;21.80;79.80
7800;DHT22;3944;47.984;7.960;2022-07-09T10:43:51;21.80;77.70
7800;DHT22;3944;47.984;7.960;2022-07-09T10:46:18;21.90;79.70
7800;DHT22;3944;47.984;7.960;2022-07-09T10:48:46;21.90;78.10
7800;DHT22;3944;47.984;7.960;2022-07-09T10:51:17;22.00;80.10
7800;DHT22;3944;47.984;7.960;2022-07-09T10:53:45;22.10;81.40
7800;DHT22;3944;47.984;7.960;2022-07-09T10:56:16;22.10;80.40
7800;DHT22;3944;47.984;7.960;2022-07-09T10:58:45;22.20;82.50
7800;DHT22;3944;47.984;7.960;2022-07-09T11:01:18;22.30;82.00
7800;DHT22;3944;47.984;7.960;2022-07-09T11:03:48;22.20;82.10
7800;DHT22;3944;47.984;7.960;2022-07-09T11:06:15;22.10;80.90
7800;DHT22;3944;47.984;7.960;2022-07-09T11:08:42;22.10;80.60
7800;DHT22;3944;47.984;7.960;2022-07-09T11:11:09;22.30;80.10
7800;DHT22;3944;47.984;7.960;2022-07-09T11:13:37;22.30;81.60
7800;DHT22;3944;47.984;7.960;2022-07-09T11:16:05;22.40;81.80
7800;DHT22;3944;47.984;7.960;2022-07-09T11:18:31;22.40;80.70
7800;DHT22;3944;47.984;7.960;2022-07-09T11:20:58;22.40;80.60
7800;DHT22;3944;47.984;7.960;2022-07-09T11:23:25;22.30;81.20
7800;DHT22;3944;47.984;7.960;2022-07-09T11:25:52;22.60;79.70
7800;DHT22;3944;47.984;7.960;2022-07-09T11:28:20;22.60;76.40
7800;DHT22;3944;47.984;7.960;2022-07-09T11:30:58;22.60;77.90
7800;DHT22;3944;47.984;7.960;2022-07-09T11:33:25;22.60;79.10
7800;DHT22;3944;47.984;7.960;2022-07-09T11:35:52;22.70;81.80
7800;DHT22;3944;47.984;7.960;2022-07-09T11:38:19;22.90;78.40
7800;DHT22;3944;47.984;7.960;2022-07-09T11:40:46;22.90;77.20
7800;DHT22;3944;47.984;7.960;2022-07-09T11:43:13;22.80;80.90
7800;DHT22;3944;47.984;7.960;2022-07-09T11:45:51;22.90;78.30
7800;DHT22;3944;47.984;7.960;2022-07-09T11:48:20;22.80;78.50
7800;DHT22;3944;47.984;7.960;2022-07-09T11:50:47;22.70;75.20
7800;DHT22;3944;47.984;7.960;2022-07-09T11:53:21;22.70;76.90
7800;DHT22;3944;47.984;7.960;2022-07-09T11:55:58;22.80;76.00
7800;DHT22;3944;47.984;7.960;2022-07-09T11:58:26;22.80;77.80
7800;DHT22;3944;47.984;7.960;2022-07-09T12:00:52;22.80;79.30
7800;DHT22;3944;47.984;7.960;2022-07-09T12:03:25;22.80;78.80
7800;DHT22;3944;47.984;7.960;2022-07-09T12:05:53;23.00;77.10
7800;DHT22;3944;47.984;7.960;2022-07-09T12:08:26;22.80;78.50
7800;DHT22;3944;47.984;7.960;2022-07-09T12:10:54;23.00;77.50
7800;DHT22;3944;47.984;7.960;2022-07-09T12:13:21;23.00;77.10
7800;DHT22;3944;47.984;7.960;2022-07-09T12:15:48;22.90;76.60
7800;DHT22;3944;47.984;7.960;2022-07-09T12:18:15;22.90;77.40
7800;DHT22;3944;47.984;7.960;2022-07-09T12:20:43;23.10;77.80
7800;DHT22;3944;47.984;7.960;2022-07-09T12:23:10;23.10;80.30
7800;DHT22;3944;47.984;7.960;2022-07-09T12:25:37;23.10;78.30
7800;DHT22;3944;47.984;7.960;2022-07-09T12:28:04;23.30;77.20
7800;DHT22;3944;47.984;7.960;2022-07-09T12:30:31;23.50;75.50
7800;DHT22;3944;47.984;7.960;2022-07-09T12:32:58;23.40;75.30
7800;DHT22;3944;47.984;7.960;2022-07-09T12:35:25;23.30;76.50
7800;DHT22;3944;47.984;7.960;2022-07-09T12:37:53;23.30;73.20
7800;DHT22;3944;47.984;7.960;2022-07-09T12:40:21;23.30;77.60
7800;DHT22;3944;47.984;7.960;2022-07-09T12:42:48;23.30;73.60
7800;DHT22;3944;47.984;7.960;2022-07-09T12:45:15;23.20;77.80
7800;DHT22;3944;47.984;7.960;2022-07-09T12:47:42;23.10;76.60
7800;DHT22;3944;47.984;7.960;2022-07-09T12:50:09;23.10;76.60
7800;DHT22;3944;47.984;7.960;2022-07-09T12:52:37;23.30;72.90
7800;DHT22;3944;47.984;7.960;2022-07-09T12:55:07;23.30;73.20
7800;DHT22;3944;47.984;7.960;2022-07-09T12:57:35;23.50;75.00
7800;DHT22;3944;47.984;7.960;2022-07-09T13:00:03;23.30;74.50
7800;DHT22;3944;47.984;7.960;2022-07-09T13:02:30;23.50;74.40
7800;DHT22;3944;47.984;7.960;2022-07-09T13:04:57;23.60;77.10
7800;DHT22;3944;47.984;7.960;2022-07-09T13:07:24;23.60;75.80
7800;DHT22;3944;47.984;7.960;2022-07-09T13:09:52;23.80;75.00
7800;DHT22;3944;47.984;7.960;2022-07-09T13:12:20;23.70;74.60
7800;DHT22;3944;47.984;7.960;2022-07-09T13:14:47;23.70;76.50
7800;DHT22;3944;47.984;7.960;2022-07-09T13:17:14;23.60;75.90
7800;DHT22;3944;47.984;7.960;2022-07-09T13:19:41;23.70;72.30
7800;DHT22;3944;47.984;7.960;2022-07-09T13:22:08;23.70;73.50
7800;DHT22;3944;47.984;7.960;2022-07-09T13:24:35;23.60;71.60
7800;DHT22;3944;47.984;7.960;2022-07-09T13:27:02;23.60;72.50
7800;DHT22;3944;47.984;7.960;2022-07-09T13:29:35;23.50;74.40
7800;DHT22;3944;47.984;7.960;2022-07-09T13:32:02;23.60;73.80
7800;DHT22;3944;47.984;7.960;2022-07-09T13:34:29;23.50;73.20
7800;DHT22;3944;47.984;7.960;2022-07-09T13:36:56;23.50;74.20
7800;DHT22;3944;47.984;7.960;2022-07-09T13:39:23;23.40;74.20
7800;DHT22;3944;47.984;7.960;2022-07-09T13:41:49;23.60;76.80
7800;DHT22;3944;47.984;7.960;2022-07-09T13:44:16;23.70;75.00
7800;DHT22;3944;47.984;7.960;2022-07-09T13:46:44;23.80;73.40
7800;DHT22;3944;47.984;7.960;2022-07-09T13:49:11;23.90;74.90
7800;DHT22;3944;47.984;7.960;2022-07-09T13:51:38;23.90;73.20
7800;DHT22;3944;47.984;7.960;2022-07-09T13:54:05;23.80;74.30
7800;DHT22;3944;47.984;7.960;2022-07-09T13:56:31;23.80;74.40
7800;DHT22;3944;47.984;7.960;2022-07-09T13:58:58;23.80;73.90
7800;DHT22;3944;47.984;7.960;2022-07-09T14:01:25;23.80;73.50
7800;DHT22;3944;47.984;7.960;2022-07-09T14:03:53;23.80;74.40
7800;DHT22;3944;47.984;7.960;2022-07-09T14:06:20;23.80;73.80
7800;DHT22;3944;47.984;7.960;2022-07-09T14:08:47;23.90;75.40
7800;DHT22;3944;47.984;7.960;2022-07-09T14:11:14;24.00;72.60
7800;DHT22;3944;47.984;7.960;2022-07-09T14:13:41;23.90;73.60
7800;DHT22;3944;47.984;7.960;2022-07-09T14:16:09;23.90;72.40
7800;DHT22;3944;47.984;7.960;2022-07-09T14:18:36;23.80;71.00
7800;DHT22;3944;47.984;7.960;2022-07-09T14:21:04;23.90;72.10
7800;DHT22;3944;47.984;7.960;2022-07-09T14:23:31;24.00;72.30
7800;DHT22;3944;47.984;7.960;2022-07-09T14:25:58;24.10;73.80
7800;DHT22;3944;47.984;7.960;2022-07-09T14:28:25;24.10;72.50
7800;DHT22;3944;47.984;7.960;2022-07-09T14:30:52;24.00;71.90
7800;DHT22;3944;47.984;7.960;2022-07-09T14:33:18;24.00;74.00
7800;DHT22;3944;47.984;7.960;2022-07-09T14:35:45;24.00;74.40
7800;DHT22;3944;47.984;7.960;2022-07-09T14:38:13;24.00;74.70
7800;DHT22;3944;47.984;7.960;2022-07-09T14:40:41;24.20;73.20
7800;DHT22;3944;47.984;7.960;2022-07-09T14:43:08;24.30;73.70
7800;DHT22;3944;47.984;7.960;2022-07-09T14:45:34;24.30;72.80
7800;DHT22;3944;47.984;7.960;2022-07-09T14:48:01;24.30;70.10
7800;DHT22;3944;47.984;7.960;2022-07-09T14:50:29;24.30;72.10
7800;DHT22;3944;47.984;7.960;2022-07-09T14:52:56;24.50;73.60
7800;DHT22;3944;47.984;7.960;2022-07-09T14:55:25;24.60;71.20
7800;DHT22;3944;47.984;7.960;2022-07-09T14:57:53;24.60;72.10
7800;DHT22;3944;47.984;7.960;2022-07-09T15:00:20;24.50;71.70
7800;DHT22;3944;47.984;7.960;2022-07-09T15:02:47;24.30;71.20
7800;DHT22;3944;47.984;7.960;2022-07-09T15:05:13;24.20;71.80
7800;DHT22;3944;47.984;7.960;2022-07-09T15:07:40;24.10;70.90
7800;DHT22;3944;47.984;7.960;2022-07-09T15:10:08;24.10;72.60
7800;DHT22;3944;47.984;7.960;2022-07-09T15:12:36;24.30;72.50
7800;DHT22;3944;47.984;7.960;2022-07-09T15:15:04;24.30;72.60
7800;DHT22;3944;47.984;7.960;2022-07-09T15:17:31;24.40;71.50
7800;DHT22;3944;47.984;7.960;2022-07-09T15:19:58;24.40;71.80
7800;DHT22;3944;47.984;7.960;2022-07-09T15:22:25;24.40;71.80
7800;DHT22;3944;47.984;7.960;2022-07-09T15:24:52;24.40;70.90
7800;DHT22;3944;47.984;7.960;2022-07-09T15:27:19;24.40;73.10
7800;DHT22;3944;47.984;7.960;2022-07-09T15:29:47;24.40;72.00
7800;DHT22;3944;47.984;7.960;2022-07-09T15:32:14;24.30;71.60
7800;DHT22;3944;47.984;7.960;2022-07-09T15:34:40;24.20;72.90
7800;DHT22;3944;47.984;7.960;2022-07-09T15:37:10;24.10;70.80
7800;DHT22;3944;47.984;7.960;2022-07-09T15:39:37;24.20;70.40
7800;DHT22;3944;47.984;7.960;2022-07-09T15:42:04;24.20;70.30
7800;DHT22;3944;47.984;7.960;2022-07-09T15:44:31;24.30;71.10
7800;DHT22;3944;47.984;7.960;2022-07-09T15:46:59;24.20;71.60
7800;DHT22;3944;47.984;7.960;2022-07-09T15:49:26;24.30;71.50
7800;DHT22;3944;47.984;7.960;2022-07-09T15:51:53;24.30;71.30
7800;DHT22;3944;47.984;7.960;2022-07-09T15:54:21;24.40;70.40
7800;DHT22;3944;47.984;7.960;2022-07-09T15:56:49;24.40;70.30
7800;DHT22;3944;47.984;7.960;2022-07-09T15:59:16;24.30;70.00
7800;DHT22;3944;47.984;7.960;2022-07-09T16:01:42;24.20;71.20
7800;DHT22;3944;47.984;7.960;2022-07-09T16:04:11;24.20;70.00